sensor_id;sensor_type;location;lat;lon;timestamp;P1;durP1;ratioP1;P2;durP2;ratioP2
66085;SDS011;52868;49.758;9.586;2022-08-25T00:00:17;4.80;;;2.13;;
66085;SDS011;52868;49.758;9.586;2022-08-25T00:02:44;8.70;;;2.20;;
66085;SDS011;52868;49.758;9.586;2022-08-25T00:05:10;3.72;;;2.05;;
66085;SDS011;52868;49.758;9.586;2022-08-25T00:07:35;8.98;;;2.60;;
66085;SDS011;52868;49.758;9.586;2022-08-25T00:10:01;9.50;;;2.08;;
66085;SDS011;52868;49.758;9.586;2022-08-25T00:12:28;7.07;;;2.45;;
66085;SDS011;52868;49.758;9.586;2022-08-25T00:14:53;5.38;;;2.60;;
66085;SDS011;52868;49.758;9.586;2022-08-25T00:17:19;2.95;;;2.00;;
66085;SDS011;52868;49.758;9.586;2022-08-25T00:19:44;4.47;;;2.50;;
66085;SDS011;52868;49.758;9.586;2022-08-25T00:22:10;8.43;;;3.00;;
66085;SDS011;52868;49.758;9.586;2022-08-25T00:24:36;4.78;;;2.58;;
66085;SDS011;52868;49.758;9.586;2022-08-25T00:27:01;7.03;;;2.83;;
66085;SDS011;52868;49.758;9.586;2022-08-25T00:29:28;5.45;;;2.30;;
66085;SDS011;52868;49.758;9.586;2022-08-25T00:31:55;4.70;;;2.30;;
66085;SDS011;52868;49.758;9.586;2022-08-25T00:34:23;4.95;;;2.38;;
66085;SDS011;52868;49.758;9.586;2022-08-25T00:36:51;2.90;;;2.00;;
66085;SDS011;52868;49.758;9.586;2022-08-25T00:39:19;8.60;;;2.00;;
66085;SDS011;52868;49.758;9.586;2022-08-25T00:41:47;4.75;;;2.05;;
66085;SDS011;52868;49.758;9.586;2022-08-25T00:44:14;4.82;;;2.33;;
66085;SDS011;52868;49.758;9.586;2022-08-25T00:49:23;5.90;;;2.40;;
66085;SDS011;52868;49.758;9.586;2022-08-25T00:52:03;4.35;;;2.40;;
66085;SDS011;52868;49.758;9.586;2022-08-25T00:54:51;4.05;;;2.30;;
66085;SDS011;52868;49.758;9.586;2022-08-25T00:57:24;5.53;;;2.22;;
66085;SDS011;52868;49.758;9.586;2022-08-25T00:59:54;8.80;;;2.45;;
66085;SDS011;52868;49.758;9.586;2022-08-25T01:02:20;4.93;;;2.45;;
66085;SDS011;52868;49.758;9.586;2022-08-25T01:04:46;3.92;;;2.30;;
66085;SDS011;52868;49.758;9.586;2022-08-25T01:07:12;5.22;;;2.70;;
66085;SDS011;52868;49.758;9.586;2022-08-25T01:09:40;5.53;;;2.63;;
66085;SDS011;52868;49.758;9.586;2022-08-25T01:12:08;3.70;;;2.30;;
66085;SDS011;52868;49.758;9.586;2022-08-25T01:14:33;5.25;;;2.72;;
66085;SDS011;52868;49.758;9.586;2022-08-25T01:17:01;5.18;;;2.55;;
66085;SDS011;52868;49.758;9.586;2022-08-25T01:19:27;4.72;;;2.40;;
66085;SDS011;52868;49.758;9.586;2022-08-25T01:21:53;6.78;;;2.60;;
66085;SDS011;52868;49.758;9.586;2022-08-25T01:26:55;4.45;;;2.22;;
66085;SDS011;52868;49.758;9.586;2022-08-25T01:29:22;4.05;;;2.47;;
66085;SDS011;52868;49.758;9.586;2022-08-25T01:31:53;5.75;;;2.90;;
66085;SDS011;52868;49.758;9.586;2022-08-25T01:34:21;7.95;;;2.60;;
66085;SDS011;52868;49.758;9.586;2022-08-25T01:36:48;4.03;;;2.35;;
66085;SDS011;52868;49.758;9.586;2022-08-25T01:39:14;6.25;;;2.65;;
66085;SDS011;52868;49.758;9.586;2022-08-25T01:41:45;6.78;;;2.90;;
66085;SDS011;52868;49.758;9.586;2022-08-25T01:44:33;5.22;;;2.58;;
66085;SDS011;52868;49.758;9.586;2022-08-25T01:47:04;7.65;;;2.55;;
66085;SDS011;52868;49.758;9.586;2022-08-25T01:49:31;5.78;;;2.50;;
66085;SDS011;52868;49.758;9.586;2022-08-25T01:52:01;6.40;;;2.55;;
66085;SDS011;52868;49.758;9.586;2022-08-25T01:54:31;7.75;;;2.47;;
66085;SDS011;52868;49.758;9.586;2022-08-25T01:56:57;9.13;;;2.95;;
66085;SDS011;52868;49.758;9.586;2022-08-25T01:59:23;10.52;;;2.80;;
66085;SDS011;52868;49.758;9.586;2022-08-25T02:01:51;6.57;;;2.80;;
66085;SDS011;52868;49.758;9.586;2022-08-25T02:04:17;5.43;;;2.70;;
66085;SDS011;52868;49.758;9.586;2022-08-25T02:06:43;6.03;;;2.50;;
66085;SDS011;52868;49.758;9.586;2022-08-25T02:09:10;4.07;;;2.13;;
66085;SDS011;52868;49.758;9.586;2022-08-25T02:11:39;8.65;;;2.83;;
66085;SDS011;52868;49.758;9.586;2022-08-25T02:14:06;4.22;;;2.47;;
66085;SDS011;52868;49.758;9.586;2022-08-25T02:16:34;5.05;;;2.72;;
66085;SDS011;52868;49.758;9.586;2022-08-25T02:19:02;5.28;;;2.38;;
66085;SDS011;52868;49.758;9.586;2022-08-25T02:21:29;5.63;;;2.95;;
66085;SDS011;52868;49.758;9.586;2022-08-25T02:23:55;5.97;;;2.88;;
66085;SDS011;52868;49.758;9.586;2022-08-25T02:26:21;6.18;;;3.25;;
66085;SDS011;52868;49.758;9.586;2022-08-25T02:28:47;4.60;;;2.40;;
66085;SDS011;52868;49.758;9.586;2022-08-25T02:31:14;8.48;;;2.65;;
66085;SDS011;52868;49.758;9.586;2022-08-25T02:33:41;10.68;;;2.95;;
66085;SDS011;52868;49.758;9.586;2022-08-25T02:36:07;6.65;;;2.63;;
66085;SDS011;52868;49.758;9.586;2022-08-25T02:38:33;6.13;;;2.92;;
66085;SDS011;52868;49.758;9.586;2022-08-25T02:41:00;6.25;;;2.83;;
66085;SDS011;52868;49.758;9.586;2022-08-25T02:43:31;6.90;;;3.13;;
66085;SDS011;52868;49.758;9.586;2022-08-25T02:45:57;4.20;;;2.60;;
66085;SDS011;52868;49.758;9.586;2022-08-25T02:48:23;9.85;;;3.30;;
66085;SDS011;52868;49.758;9.586;2022-08-25T02:50:50;5.75;;;3.00;;
66085;SDS011;52868;49.758;9.586;2022-08-25T02:53:17;6.72;;;2.90;;
66085;SDS011;52868;49.758;9.586;2022-08-25T02:55:44;5.47;;;2.80;;
66085;SDS011;52868;49.758;9.586;2022-08-25T02:58:10;6.47;;;3.30;;
66085;SDS011;52868;49.758;9.586;2022-08-25T03:00:36;7.30;;;3.38;;
66085;SDS011;52868;49.758;9.586;2022-08-25T03:03:03;6.00;;;3.15;;
66085;SDS011;52868;49.758;9.586;2022-08-25T03:05:29;9.00;;;3.25;;
66085;SDS011;52868;49.758;9.586;2022-08-25T03:07:55;7.07;;;3.28;;
66085;SDS011;52868;49.758;9.586;2022-08-25T03:10:20;5.30;;;2.80;;
66085;SDS011;52868;49.758;9.586;2022-08-25T03:12:46;6.38;;;3.05;;
66085;SDS011;52868;49.758;9.586;2022-08-25T03:15:13;5.25;;;2.70;;
66085;SDS011;52868;49.758;9.586;2022-08-25T03:17:41;5.77;;;3.27;;
66085;SDS011;52868;49.758;9.586;2022-08-25T03:20:07;8.10;;;3.00;;
66085;SDS011;52868;49.758;9.586;2022-08-25T03:22:33;13.43;;;3.67;;
66085;SDS011;52868;49.758;9.586;2022-08-25T03:25:00;5.32;;;3.05;;
66085;SDS011;52868;49.758;9.586;2022-08-25T03:27:45;8.75;;;3.17;;
66085;SDS011;52868;49.758;9.586;2022-08-25T03:30:11;6.93;;;3.00;;
66085;SDS011;52868;49.758;9.586;2022-08-25T03:32:37;8.05;;;3.40;;
66085;SDS011;52868;49.758;9.586;2022-08-25T03:35:03;6.53;;;2.90;;
66085;SDS011;52868;49.758;9.586;2022-08-25T03:37:29;5.95;;;2.95;;
66085;SDS011;52868;49.758;9.586;2022-08-25T03:39:55;7.47;;;3.13;;
66085;SDS011;52868;49.758;9.586;2022-08-25T03:42:20;8.77;;;2.92;;
66085;SDS011;52868;49.758;9.586;2022-08-25T03:44:46;10.82;;;3.13;;
66085;SDS011;52868;49.758;9.586;2022-08-25T03:47:13;6.13;;;2.90;;
66085;SDS011;52868;49.758;9.586;2022-08-25T03:49:39;6.53;;;2.90;;
66085;SDS011;52868;49.758;9.586;2022-08-25T03:52:05;6.03;;;3.13;;
66085;SDS011;52868;49.758;9.586;2022-08-25T03:54:31;8.02;;;2.85;;
66085;SDS011;52868;49.758;9.586;2022-08-25T03:56:56;9.10;;;2.90;;
66085;SDS011;52868;49.758;9.586;2022-08-25T03:59:22;5.63;;;2.53;;
66085;SDS011;52868;49.758;9.586;2022-08-25T04:01:47;6.25;;;3.42;;
66085;SDS011;52868;49.758;9.586;2022-08-25T04:04:14;6.35;;;3.20;;
66085;SDS011;52868;49.758;9.586;2022-08-25T04:06:40;4.82;;;2.95;;
66085;SDS011;52868;49.758;9.586;2022-08-25T04:09:07;5.35;;;2.80;;
66085;SDS011;52868;49.758;9.586;2022-08-25T04:11:33;10.13;;;3.45;;
66085;SDS011;52868;49.758;9.586;2022-08-25T04:13:59;5.45;;;2.90;;
66085;SDS011;52868;49.758;9.586;2022-08-25T04:16:30;9.18;;;3.08;;
66085;SDS011;52868;49.758;9.586;2022-08-25T04:18:57;9.80;;;2.88;;
66085;SDS011;52868;49.758;9.586;2022-08-25T04:21:25;10.20;;;2.83;;
66085;SDS011;52868;49.758;9.586;2022-08-25T04:23:51;5.30;;;3.03;;
66085;SDS011;52868;49.758;9.586;2022-08-25T04:26:32;6.38;;;3.20;;
66085;SDS011;52868;49.758;9.586;2022-08-25T04:29:00;8.30;;;3.10;;
66085;SDS011;52868;49.758;9.586;2022-08-25T04:31:28;9.52;;;2.95;;
66085;SDS011;52868;49.758;9.586;2022-08-25T04:33:54;9.40;;;2.95;;
66085;SDS011;52868;49.758;9.586;2022-08-25T04:36:20;6.05;;;3.35;;
66085;SDS011;52868;49.758;9.586;2022-08-25T04:38:47;6.43;;;3.47;;
66085;SDS011;52868;49.758;9.586;2022-08-25T04:41:14;5.93;;;3.10;;
66085;SDS011;52868;49.758;9.586;2022-08-25T04:43:43;11.32;;;3.55;;
66085;SDS011;52868;49.758;9.586;2022-08-25T04:46:14;9.88;;;3.25;;
66085;SDS011;52868;49.758;9.586;2022-08-25T04:48:44;7.35;;;3.25;;
66085;SDS011;52868;49.758;9.586;2022-08-25T04:51:11;5.95;;;3.17;;
66085;SDS011;52868;49.758;9.586;2022-08-25T04:53:39;10.18;;;3.17;;
66085;SDS011;52868;49.758;9.586;2022-08-25T04:56:06;10.50;;;3.08;;
66085;SDS011;52868;49.758;9.586;2022-08-25T04:58:37;11.18;;;3.20;;
66085;SDS011;52868;49.758;9.586;2022-08-25T05:01:10;9.00;;;3.10;;
66085;SDS011;52868;49.758;9.586;2022-08-25T05:03:44;7.75;;;2.95;;
66085;SDS011;52868;49.758;9.586;2022-08-25T05:06:11;5.82;;;3.20;;
66085;SDS011;52868;49.758;9.586;2022-08-25T05:08:38;5.13;;;2.90;;
66085;SDS011;52868;49.758;9.586;2022-08-25T05:11:07;12.77;;;3.25;;
66085;SDS011;52868;49.758;9.586;2022-08-25T05:13:37;5.93;;;3.40;;
66085;SDS011;52868;49.758;9.586;2022-08-25T05:16:03;7.05;;;3.50;;
66085;SDS011;52868;49.758;9.586;2022-08-25T05:18:29;6.10;;;3.35;;
66085;SDS011;52868;49.758;9.586;2022-08-25T05:21:00;5.97;;;3.17;;
66085;SDS011;52868;49.758;9.586;2022-08-25T05:23:27;8.82;;;3.17;;
66085;SDS011;52868;49.758;9.586;2022-08-25T05:25:52;5.35;;;3.40;;
66085;SDS011;52868;49.758;9.586;2022-08-25T05:28:19;8.00;;;3.20;;
66085;SDS011;52868;49.758;9.586;2022-08-25T05:30:45;7.70;;;3.58;;
66085;SDS011;52868;49.758;9.586;2022-08-25T05:33:13;7.53;;;3.13;;
66085;SDS011;52868;49.758;9.586;2022-08-25T05:35:40;8.00;;;3.25;;
66085;SDS011;52868;49.758;9.586;2022-08-25T05:38:06;8.73;;;3.25;;
66085;SDS011;52868;49.758;9.586;2022-08-25T05:40:32;6.68;;;3.38;;
66085;SDS011;52868;49.758;9.586;2022-08-25T05:42:58;17.73;;;4.72;;
66085;SDS011;52868;49.758;9.586;2022-08-25T05:45:24;6.13;;;2.95;;
66085;SDS011;52868;49.758;9.586;2022-08-25T05:47:49;6.15;;;3.00;;
66085;SDS011;52868;49.758;9.586;2022-08-25T05:50:16;10.40;;;3.35;;
66085;SDS011;52868;49.758;9.586;2022-08-25T05:52:42;7.20;;;3.22;;
66085;SDS011;52868;49.758;9.586;2022-08-25T05:55:08;5.35;;;3.08;;
66085;SDS011;52868;49.758;9.586;2022-08-25T05:57:34;7.25;;;3.25;;
66085;SDS011;52868;49.758;9.586;2022-08-25T06:00:00;9.95;;;3.60;;
66085;SDS011;52868;49.758;9.586;2022-08-25T06:02:27;10.68;;;3.38;;
66085;SDS011;52868;49.758;9.586;2022-08-25T06:05:06;10.55;;;2.97;;
66085;SDS011;52868;49.758;9.586;2022-08-25T06:07:32;6.97;;;3.45;;
66085;SDS011;52868;49.758;9.586;2022-08-25T06:10:00;7.13;;;3.53;;
66085;SDS011;52868;49.758;9.586;2022-08-25T06:12:27;6.88;;;2.92;;
66085;SDS011;52868;49.758;9.586;2022-08-25T06:14:53;6.15;;;3.15;;
66085;SDS011;52868;49.758;9.586;2022-08-25T06:17:19;7.38;;;3.83;;
66085;SDS011;52868;49.758;9.586;2022-08-25T06:19:44;7.82;;;3.20;;
66085;SDS011;52868;49.758;9.586;2022-08-25T06:22:10;6.32;;;3.30;;
66085;SDS011;52868;49.758;9.586;2022-08-25T06:24:36;6.20;;;3.40;;
66085;SDS011;52868;49.758;9.586;2022-08-25T06:27:01;8.00;;;3.50;;
66085;SDS011;52868;49.758;9.586;2022-08-25T06:29:27;7.50;;;3.80;;
66085;SDS011;52868;49.758;9.586;2022-08-25T06:31:53;8.65;;;3.65;;
66085;SDS011;52868;49.758;9.586;2022-08-25T06:34:19;5.80;;;3.00;;
66085;SDS011;52868;49.758;9.586;2022-08-25T06:36:44;8.35;;;3.40;;
66085;SDS011;52868;49.758;9.586;2022-08-25T06:39:10;6.20;;;3.65;;
66085;SDS011;52868;49.758;9.586;2022-08-25T06:41:36;8.93;;;3.38;;
66085;SDS011;52868;49.758;9.586;2022-08-25T06:44:02;7.60;;;3.50;;
66085;SDS011;52868;49.758;9.586;2022-08-25T06:46:28;6.30;;;3.60;;
66085;SDS011;52868;49.758;9.586;2022-08-25T06:48:55;8.63;;;3.90;;
66085;SDS011;52868;49.758;9.586;2022-08-25T06:51:23;10.32;;;3.67;;
66085;SDS011;52868;49.758;9.586;2022-08-25T06:53:50;5.23;;;3.07;;
66085;SDS011;52868;49.758;9.586;2022-08-25T06:56:17;6.45;;;3.13;;
66085;SDS011;52868;49.758;9.586;2022-08-25T06:58:44;9.82;;;3.80;;
66085;SDS011;52868;49.758;9.586;2022-08-25T07:03:45;7.97;;;4.10;;
66085;SDS011;52868;49.758;9.586;2022-08-25T07:06:11;8.07;;;4.65;;
66085;SDS011;52868;49.758;9.586;2022-08-25T07:08:36;10.85;;;3.90;;
66085;SDS011;52868;49.758;9.586;2022-08-25T07:11:06;7.50;;;4.15;;
66085;SDS011;52868;49.758;9.586;2022-08-25T07:13:32;11.93;;;4.90;;
66085;SDS011;52868;49.758;9.586;2022-08-25T07:15:59;7.93;;;4.30;;
66085;SDS011;52868;49.758;9.586;2022-08-25T07:18:25;9.88;;;4.28;;
66085;SDS011;52868;49.758;9.586;2022-08-25T07:20:51;13.00;;;4.97;;
66085;SDS011;52868;49.758;9.586;2022-08-25T07:23:18;10.98;;;4.95;;
66085;SDS011;52868;49.758;9.586;2022-08-25T07:25:45;11.75;;;5.18;;
66085;SDS011;52868;49.758;9.586;2022-08-25T07:28:11;8.73;;;4.88;;
66085;SDS011;52868;49.758;9.586;2022-08-25T07:30:37;12.20;;;5.45;;
66085;SDS011;52868;49.758;9.586;2022-08-25T07:33:03;9.43;;;4.80;;
66085;SDS011;52868;49.758;9.586;2022-08-25T07:35:29;13.48;;;5.85;;
66085;SDS011;52868;49.758;9.586;2022-08-25T07:37:56;10.88;;;6.18;;
66085;SDS011;52868;49.758;9.586;2022-08-25T07:40:30;8.85;;;5.20;;
66085;SDS011;52868;49.758;9.586;2022-08-25T07:42:59;10.63;;;5.25;;
66085;SDS011;52868;49.758;9.586;2022-08-25T07:45:28;13.02;;;5.97;;
66085;SDS011;52868;49.758;9.586;2022-08-25T07:47:58;9.23;;;5.10;;
66085;SDS011;52868;49.758;9.586;2022-08-25T07:50:26;12.65;;;5.68;;
66085;SDS011;52868;49.758;9.586;2022-08-25T07:52:54;8.93;;;5.25;;
66085;SDS011;52868;49.758;9.586;2022-08-25T07:55:21;10.02;;;6.18;;
66085;SDS011;52868;49.758;9.586;2022-08-25T07:57:48;14.57;;;5.72;;
66085;SDS011;52868;49.758;9.586;2022-08-25T08:00:14;10.50;;;5.28;;
66085;SDS011;52868;49.758;9.586;2022-08-25T08:02:41;11.35;;;5.38;;
66085;SDS011;52868;49.758;9.586;2022-08-25T08:05:08;12.63;;;5.57;;
66085;SDS011;52868;49.758;9.586;2022-08-25T08:07:35;22.27;;;6.07;;
66085;SDS011;52868;49.758;9.586;2022-08-25T08:10:00;10.88;;;5.32;;
66085;SDS011;52868;49.758;9.586;2022-08-25T08:12:27;11.38;;;5.88;;
66085;SDS011;52868;49.758;9.586;2022-08-25T08:14:53;11.60;;;5.93;;
66085;SDS011;52868;49.758;9.586;2022-08-25T08:17:19;14.35;;;5.85;;
66085;SDS011;52868;49.758;9.586;2022-08-25T08:19:45;9.20;;;5.55;;
66085;SDS011;52868;49.758;9.586;2022-08-25T08:22:11;10.93;;;5.10;;
66085;SDS011;52868;49.758;9.586;2022-08-25T08:24:41;9.57;;;5.70;;
66085;SDS011;52868;49.758;9.586;2022-08-25T08:27:09;12.55;;;5.85;;
66085;SDS011;52868;49.758;9.586;2022-08-25T08:29:36;11.93;;;5.22;;
66085;SDS011;52868;49.758;9.586;2022-08-25T08:32:03;9.95;;;4.93;;
66085;SDS011;52868;49.758;9.586;2022-08-25T08:34:30;11.73;;;5.13;;
66085;SDS011;52868;49.758;9.586;2022-08-25T08:36:57;13.38;;;5.32;;
66085;SDS011;52868;49.758;9.586;2022-08-25T08:39:23;12.32;;;5.35;;
66085;SDS011;52868;49.758;9.586;2022-08-25T08:42:02;10.93;;;5.03;;
66085;SDS011;52868;49.758;9.586;2022-08-25T08:52:15;11.82;;;5.03;;
66085;SDS011;52868;49.758;9.586;2022-08-25T08:54:45;11.20;;;4.45;;
66085;SDS011;52868;49.758;9.586;2022-08-25T08:57:18;7.32;;;4.53;;
66085;SDS011;52868;49.758;9.586;2022-08-25T08:59:53;9.05;;;5.10;;
66085;SDS011;52868;49.758;9.586;2022-08-25T09:05:02;9.93;;;4.80;;
66085;SDS011;52868;49.758;9.586;2022-08-25T09:07:34;13.27;;;4.90;;
66085;SDS011;52868;49.758;9.586;2022-08-25T09:10:07;9.68;;;4.70;;
66085;SDS011;52868;49.758;9.586;2022-08-25T09:15:28;10.15;;;4.68;;
66085;SDS011;52868;49.758;9.586;2022-08-25T09:18:45;8.57;;;4.80;;
66085;SDS011;52868;49.758;9.586;2022-08-25T09:21:30;10.70;;;4.85;;
66085;SDS011;52868;49.758;9.586;2022-08-25T09:29:22;9.70;;;4.82;;
66085;SDS011;52868;49.758;9.586;2022-08-25T09:31:51;8.68;;;4.38;;
66085;SDS011;52868;49.758;9.586;2022-08-25T09:34:22;10.75;;;4.80;;
66085;SDS011;52868;49.758;9.586;2022-08-25T09:36:52;9.18;;;4.35;;
66085;SDS011;52868;49.758;9.586;2022-08-25T09:39:18;12.25;;;4.13;;
66085;SDS011;52868;49.758;9.586;2022-08-25T09:44:24;9.20;;;4.43;;
66085;SDS011;52868;49.758;9.586;2022-08-25T09:47:05;9.68;;;4.72;;
66085;SDS011;52868;49.758;9.586;2022-08-25T09:49:40;10.85;;;4.60;;
66085;SDS011;52868;49.758;9.586;2022-08-25T09:54:50;7.65;;;3.97;;
66085;SDS011;52868;49.758;9.586;2022-08-25T09:57:26;7.95;;;3.95;;
66085;SDS011;52868;49.758;9.586;2022-08-25T10:00:11;8.85;;;3.75;;
66085;SDS011;52868;49.758;9.586;2022-08-25T10:02:37;8.45;;;3.80;;
66085;SDS011;52868;49.758;9.586;2022-08-25T10:05:16;7.20;;;4.20;;
66085;SDS011;52868;49.758;9.586;2022-08-25T10:07:49;8.60;;;4.07;;
66085;SDS011;52868;49.758;9.586;2022-08-25T10:12:59;7.15;;;4.15;;
66085;SDS011;52868;49.758;9.586;2022-08-25T10:15:29;7.80;;;4.20;;
66085;SDS011;52868;49.758;9.586;2022-08-25T10:20:59;7.80;;;3.78;;
66085;SDS011;52868;49.758;9.586;2022-08-25T10:23:26;7.95;;;3.45;;
66085;SDS011;52868;49.758;9.586;2022-08-25T10:25:53;10.65;;;3.90;;
66085;SDS011;52868;49.758;9.586;2022-08-25T10:28:27;8.55;;;3.70;;
66085;SDS011;52868;49.758;9.586;2022-08-25T10:39:08;6.88;;;3.80;;
66085;SDS011;52868;49.758;9.586;2022-08-25T10:56:49;6.23;;;3.70;;
66085;SDS011;52868;49.758;9.586;2022-08-25T11:11:04;10.32;;;3.00;;
66085;SDS011;52868;49.758;9.586;2022-08-25T11:13:40;4.80;;;2.88;;
66085;SDS011;52868;49.758;9.586;2022-08-25T11:16:17;6.43;;;3.47;;
66085;SDS011;52868;49.758;9.586;2022-08-25T11:26:58;6.88;;;3.10;;
66085;SDS011;52868;49.758;9.586;2022-08-25T11:29:25;5.80;;;2.70;;
66085;SDS011;52868;49.758;9.586;2022-08-25T11:31:57;7.80;;;3.20;;
66085;SDS011;52868;49.758;9.586;2022-08-25T11:34:24;7.00;;;2.57;;
66085;SDS011;52868;49.758;9.586;2022-08-25T11:36:56;5.25;;;2.80;;
66085;SDS011;52868;49.758;9.586;2022-08-25T12:00:47;7.53;;;3.13;;
66085;SDS011;52868;49.758;9.586;2022-08-25T12:06:16;7.03;;;3.42;;
66085;SDS011;52868;49.758;9.586;2022-08-25T12:30:13;6.28;;;2.88;;
66085;SDS011;52868;49.758;9.586;2022-08-25T12:40:26;5.45;;;2.95;;
66085;SDS011;52868;49.758;9.586;2022-08-25T12:43:02;5.10;;;2.90;;
66085;SDS011;52868;49.758;9.586;2022-08-25T12:54:15;5.28;;;2.70;;
66085;SDS011;52868;49.758;9.586;2022-08-25T12:56:55;5.97;;;3.00;;
66085;SDS011;52868;49.758;9.586;2022-08-25T12:59:34;5.07;;;2.88;;
66085;SDS011;52868;49.758;9.586;2022-08-25T13:02:26;8.90;;;3.13;;
66085;SDS011;52868;49.758;9.586;2022-08-25T13:16:02;7.15;;;2.85;;
66085;SDS011;52868;49.758;9.586;2022-08-25T13:18:34;5.07;;;3.03;;
66085;SDS011;52868;49.758;9.586;2022-08-25T13:23:43;6.32;;;2.78;;
66085;SDS011;52868;49.758;9.586;2022-08-25T13:26:15;7.75;;;2.97;;
66085;SDS011;52868;49.758;9.586;2022-08-25T13:28:49;8.50;;;2.80;;
66085;SDS011;52868;49.758;9.586;2022-08-25T13:31:21;5.22;;;2.95;;
66085;SDS011;52868;49.758;9.586;2022-08-25T13:34:02;13.90;;;2.65;;
66085;SDS011;52868;49.758;9.586;2022-08-25T13:36:30;6.97;;;3.20;;
66085;SDS011;52868;49.758;9.586;2022-08-25T13:39:19;25.98;;;3.20;;
66085;SDS011;52868;49.758;9.586;2022-08-25T13:41:48;7.40;;;2.90;;
66085;SDS011;52868;49.758;9.586;2022-08-25T13:44:15;5.82;;;2.83;;
66085;SDS011;52868;49.758;9.586;2022-08-25T13:46:43;5.72;;;3.05;;
66085;SDS011;52868;49.758;9.586;2022-08-25T13:49:11;7.22;;;2.72;;
66085;SDS011;52868;49.758;9.586;2022-08-25T13:51:49;10.23;;;2.80;;
66085;SDS011;52868;49.758;9.586;2022-08-25T13:54:25;4.38;;;2.50;;
66085;SDS011;52868;49.758;9.586;2022-08-25T13:59:53;5.63;;;2.72;;
66085;SDS011;52868;49.758;9.586;2022-08-25T14:05:05;4.97;;;2.63;;
66085;SDS011;52868;49.758;9.586;2022-08-25T14:07:31;9.23;;;2.60;;
66085;SDS011;52868;49.758;9.586;2022-08-25T14:09:58;6.53;;;2.60;;
66085;SDS011;52868;49.758;9.586;2022-08-25T14:12:43;7.03;;;2.83;;
66085;SDS011;52868;49.758;9.586;2022-08-25T14:20:31;5.68;;;2.50;;
66085;SDS011;52868;49.758;9.586;2022-08-25T14:22:59;5.32;;;2.75;;
66085;SDS011;52868;49.758;9.586;2022-08-25T14:25:31;7.78;;;2.72;;
66085;SDS011;52868;49.758;9.586;2022-08-25T14:28:01;6.75;;;2.45;;
66085;SDS011;52868;49.758;9.586;2022-08-25T14:30:29;4.63;;;2.55;;
66085;SDS011;52868;49.758;9.586;2022-08-25T14:32:58;4.82;;;2.45;;
66085;SDS011;52868;49.758;9.586;2022-08-25T14:35:26;4.13;;;2.50;;
66085;SDS011;52868;49.758;9.586;2022-08-25T14:37:53;4.72;;;2.60;;
66085;SDS011;52868;49.758;9.586;2022-08-25T14:40:19;5.13;;;2.60;;
66085;SDS011;52868;49.758;9.586;2022-08-25T14:42:46;9.23;;;2.85;;
66085;SDS011;52868;49.758;9.586;2022-08-25T14:45:16;6.93;;;2.60;;
66085;SDS011;52868;49.758;9.586;2022-08-25T14:47:43;6.13;;;2.50;;
66085;SDS011;52868;49.758;9.586;2022-08-25T14:50:12;4.72;;;2.55;;
66085;SDS011;52868;49.758;9.586;2022-08-25T14:52:39;6.65;;;2.47;;
66085;SDS011;52868;49.758;9.586;2022-08-25T14:55:07;7.97;;;2.80;;
66085;SDS011;52868;49.758;9.586;2022-08-25T14:57:33;9.13;;;3.00;;
66085;SDS011;52868;49.758;9.586;2022-08-25T15:00:00;4.10;;;2.55;;
66085;SDS011;52868;49.758;9.586;2022-08-25T15:02:27;5.35;;;2.25;;
66085;SDS011;52868;49.758;9.586;2022-08-25T15:04:57;7.03;;;2.58;;
66085;SDS011;52868;49.758;9.586;2022-08-25T15:07:26;5.38;;;2.40;;
66085;SDS011;52868;49.758;9.586;2022-08-25T15:10:12;4.32;;;2.42;;
66085;SDS011;52868;49.758;9.586;2022-08-25T15:12:37;4.72;;;2.40;;
66085;SDS011;52868;49.758;9.586;2022-08-25T15:15:03;5.30;;;2.63;;
66085;SDS011;52868;49.758;9.586;2022-08-25T15:17:30;6.32;;;2.90;;
66085;SDS011;52868;49.758;9.586;2022-08-25T15:19:56;4.10;;;2.20;;
66085;SDS011;52868;49.758;9.586;2022-08-25T15:22:22;4.45;;;2.58;;
66085;SDS011;52868;49.758;9.586;2022-08-25T15:24:48;3.95;;;2.30;;
66085;SDS011;52868;49.758;9.586;2022-08-25T15:27:14;5.43;;;2.90;;
66085;SDS011;52868;49.758;9.586;2022-08-25T15:29:42;8.23;;;2.97;;
66085;SDS011;52868;49.758;9.586;2022-08-25T15:32:08;4.20;;;2.42;;
66085;SDS011;52868;49.758;9.586;2022-08-25T15:34:34;8.95;;;2.63;;
66085;SDS011;52868;49.758;9.586;2022-08-25T15:37:05;8.18;;;3.08;;
66085;SDS011;52868;49.758;9.586;2022-08-25T15:39:36;8.02;;;2.50;;
66085;SDS011;52868;49.758;9.586;2022-08-25T15:42:03;5.00;;;2.40;;
66085;SDS011;52868;49.758;9.586;2022-08-25T15:44:29;3.60;;;2.30;;
66085;SDS011;52868;49.758;9.586;2022-08-25T15:46:56;4.97;;;2.47;;
66085;SDS011;52868;49.758;9.586;2022-08-25T15:49:23;10.30;;;2.88;;
66085;SDS011;52868;49.758;9.586;2022-08-25T15:51:49;4.28;;;2.58;;
66085;SDS011;52868;49.758;9.586;2022-08-25T15:54:16;3.85;;;2.40;;
66085;SDS011;52868;49.758;9.586;2022-08-25T15:56:41;8.45;;;2.40;;
66085;SDS011;52868;49.758;9.586;2022-08-25T15:59:08;3.72;;;2.25;;
66085;SDS011;52868;49.758;9.586;2022-08-25T16:01:34;5.68;;;2.20;;
66085;SDS011;52868;49.758;9.586;2022-08-25T16:04:00;6.60;;;2.80;;
66085;SDS011;52868;49.758;9.586;2022-08-25T16:06:26;4.82;;;2.30;;
66085;SDS011;52868;49.758;9.586;2022-08-25T16:08:52;5.15;;;2.63;;
66085;SDS011;52868;49.758;9.586;2022-08-25T16:11:22;4.82;;;2.58;;
66085;SDS011;52868;49.758;9.586;2022-08-25T16:13:49;4.50;;;2.55;;
66085;SDS011;52868;49.758;9.586;2022-08-25T16:16:17;5.65;;;2.80;;
66085;SDS011;52868;49.758;9.586;2022-08-25T16:18:43;5.25;;;2.47;;
66085;SDS011;52868;49.758;9.586;2022-08-25T16:21:13;4.78;;;2.42;;
66085;SDS011;52868;49.758;9.586;2022-08-25T16:23:41;7.80;;;2.95;;
66085;SDS011;52868;49.758;9.586;2022-08-25T16:26:08;4.50;;;2.80;;
66085;SDS011;52868;49.758;9.586;2022-08-25T16:28:38;8.10;;;2.97;;
66085;SDS011;52868;49.758;9.586;2022-08-25T16:31:07;8.55;;;2.80;;
66085;SDS011;52868;49.758;9.586;2022-08-25T16:33:34;5.13;;;2.70;;
66085;SDS011;52868;49.758;9.586;2022-08-25T16:36:03;8.00;;;2.83;;
66085;SDS011;52868;49.758;9.586;2022-08-25T16:38:30;4.65;;;2.50;;
66085;SDS011;52868;49.758;9.586;2022-08-25T16:40:56;8.05;;;2.65;;
66085;SDS011;52868;49.758;9.586;2022-08-25T16:43:21;6.28;;;2.72;;
66085;SDS011;52868;49.758;9.586;2022-08-25T16:45:55;5.18;;;2.72;;
66085;SDS011;52868;49.758;9.586;2022-08-25T16:48:23;5.10;;;2.72;;
66085;SDS011;52868;49.758;9.586;2022-08-25T16:50:48;6.40;;;2.90;;
66085;SDS011;52868;49.758;9.586;2022-08-25T16:53:14;6.85;;;2.70;;
66085;SDS011;52868;49.758;9.586;2022-08-25T16:55:59;5.28;;;2.65;;
66085;SDS011;52868;49.758;9.586;2022-08-25T16:58:25;7.45;;;2.80;;
66085;SDS011;52868;49.758;9.586;2022-08-25T17:00:51;7.20;;;2.97;;
66085;SDS011;52868;49.758;9.586;2022-08-25T17:03:17;4.68;;;3.25;;
66085;SDS011;52868;49.758;9.586;2022-08-25T17:05:42;5.53;;;3.08;;
66085;SDS011;52868;49.758;9.586;2022-08-25T17:08:08;6.38;;;3.47;;
66085;SDS011;52868;49.758;9.586;2022-08-25T17:10:53;8.20;;;3.80;;
66085;SDS011;52868;49.758;9.586;2022-08-25T17:13:35;6.97;;;3.03;;
66085;SDS011;52868;49.758;9.586;2022-08-25T17:16:02;6.30;;;3.42;;
66085;SDS011;52868;49.758;9.586;2022-08-25T17:18:28;9.35;;;3.53;;
66085;SDS011;52868;49.758;9.586;2022-08-25T17:20:58;8.40;;;3.47;;
66085;SDS011;52868;49.758;9.586;2022-08-25T17:23:27;5.85;;;3.33;;
66085;SDS011;52868;49.758;9.586;2022-08-25T17:25:53;7.80;;;3.42;;
66085;SDS011;52868;49.758;9.586;2022-08-25T17:28:19;8.43;;;3.55;;
66085;SDS011;52868;49.758;9.586;2022-08-25T17:30:45;7.05;;;3.80;;
66085;SDS011;52868;49.758;9.586;2022-08-25T17:33:12;5.75;;;3.35;;
66085;SDS011;52868;49.758;9.586;2022-08-25T17:35:42;13.23;;;3.88;;
66085;SDS011;52868;49.758;9.586;2022-08-25T17:38:11;6.30;;;3.65;;
66085;SDS011;52868;49.758;9.586;2022-08-25T17:40:38;7.03;;;3.15;;